createdAt,value
2022-08-10T00:01:17.077Z,2.50
2022-08-10T00:04:04.392Z,3.10
2022-08-10T00:06:54.042Z,2.53
2022-08-10T00:09:50.964Z,2.60
2022-08-10T00:12:54.761Z,2.70
2022-08-10T00:15:52.353Z,2.77
2022-08-10T00:18:40.825Z,2.80
2022-08-10T00:21:27.589Z,3.07
2022-08-10T00:24:16.277Z,3.00
2022-08-10T00:27:52.570Z,2.80
2022-08-10T00:30:10.263Z,2.80
2022-08-10T00:32:57.143Z,3.30
2022-08-10T00:36:08.988Z,2.77
2022-08-10T00:38:55.667Z,3.10
2022-08-10T00:41:43.740Z,3.63
2022-08-10T00:44:30.567Z,3.20
2022-08-10T00:47:36.499Z,3.23
2022-08-10T00:50:24.427Z,3.40
2022-08-10T00:53:11.102Z,3.40
2022-08-10T00:56:35.088Z,3.30
2022-08-10T00:59:06.174Z,2.93
2022-08-10T01:02:08.315Z,3.07
2022-08-10T01:04:59.815Z,3.50
2022-08-10T01:08:11.942Z,3.23
2022-08-10T01:11:06.324Z,3.13
2022-08-10T01:14:22.786Z,3.20
2022-08-10T01:17:14.479Z,3.67
2022-08-10T01:20:07.719Z,3.67
2022-08-10T01:23:26.845Z,3.43
2022-08-10T01:26:58.833Z,3.10
2022-08-10T01:29:56.619Z,2.90
2022-08-10T01:32:58.980Z,3.10
2022-08-10T01:35:53.162Z,3.77
2022-08-10T01:38:45.842Z,3.33
2022-08-10T01:41:47.000Z,8.53
2022-08-10T01:44:37.870Z,3.30
2022-08-10T01:47:48.710Z,3.43
2022-08-10T01:50:53.251Z,3.57
2022-08-10T01:53:52.210Z,4.43
2022-08-10T01:56:43.476Z,3.60
2022-08-10T01:59:34.958Z,3.30
2022-08-10T02:02:22.518Z,3.10
2022-08-10T02:05:11.626Z,3.63
2022-08-10T02:08:00.865Z,3.67
2022-08-10T02:10:49.695Z,3.30
2022-08-10T02:13:37.525Z,3.10
2022-08-10T02:16:26.327Z,3.70
2022-08-10T02:19:16.137Z,3.70
2022-08-10T02:22:35.704Z,3.43
2022-08-10T02:25:41.538Z,3.87
2022-08-10T02:28:29.361Z,4.00
2022-08-10T02:31:23.120Z,3.37
2022-08-10T02:34:12.684Z,3.50
2022-08-10T02:37:02.380Z,3.63
2022-08-10T02:39:58.960Z,3.37
2022-08-10T02:45:22.691Z,3.73
2022-08-10T02:46:04.707Z,3.77
2022-08-10T02:48:59.440Z,3.63
2022-08-10T02:52:07.614Z,3.70
2022-08-10T02:55:06.193Z,3.83
2022-08-10T02:58:13.447Z,3.53
2022-08-10T03:01:08.418Z,3.57
2022-08-10T03:04:01.959Z,3.67
2022-08-10T03:06:55.713Z,3.23
2022-08-10T03:09:44.304Z,3.37
2022-08-10T03:12:37.329Z,4.23
2022-08-10T03:15:28.464Z,3.63
2022-08-10T03:18:16.308Z,3.83
2022-08-10T03:21:03.761Z,3.70
2022-08-10T03:23:52.687Z,3.80
2022-08-10T03:26:40.224Z,3.77
2022-08-10T03:29:30.127Z,4.13
2022-08-10T03:32:37.317Z,3.80
2022-08-10T03:35:25.058Z,4.00
2022-08-10T03:38:11.980Z,3.70
2022-08-10T03:41:03.083Z,4.17
2022-08-10T03:43:51.400Z,3.80
2022-08-10T03:46:42.809Z,3.90
2022-08-10T03:49:32.082Z,4.00
2022-08-10T03:52:19.972Z,4.43
2022-08-10T03:55:08.180Z,4.03
2022-08-10T03:57:55.083Z,3.93
2022-08-10T04:00:42.577Z,3.83
2022-08-10T04:03:30.745Z,4.03
2022-08-10T04:06:17.885Z,4.10
2022-08-10T04:09:06.095Z,4.00
2022-08-10T04:11:52.546Z,3.83
2022-08-10T04:14:51.350Z,5.30
2022-08-10T04:18:04.480Z,3.87
2022-08-10T04:20:51.738Z,4.30
2022-08-10T04:23:42.343Z,4.23
2022-08-10T04:26:29.523Z,4.20
2022-08-10T04:29:16.439Z,3.80
2022-08-10T04:32:04.933Z,4.10
2022-08-10T04:34:53.732Z,4.40
2022-08-10T04:37:47.339Z,4.37
2022-08-10T04:40:34.439Z,3.93
2022-08-10T04:43:21.498Z,3.83
2022-08-10T04:46:42.461Z,3.43
2022-08-10T04:49:54.554Z,3.80
2022-08-10T04:52:21.973Z,3.90
2022-08-10T04:55:13.502Z,4.10
2022-08-10T04:58:01.969Z,4.27
2022-08-10T05:00:48.997Z,3.80
2022-08-10T05:03:35.691Z,4.43
2022-08-10T05:06:42.213Z,4.13
2022-08-10T05:09:29.115Z,3.97
2022-08-10T05:12:17.261Z,3.87
2022-08-10T05:15:04.057Z,3.73
2022-08-10T05:18:08.872Z,3.80
2022-08-10T05:20:56.255Z,3.70
2022-08-10T05:23:43.054Z,3.90
2022-08-10T05:26:29.940Z,3.63
2022-08-10T05:29:18.030Z,3.80
2022-08-10T05:32:05.526Z,3.87
2022-08-10T05:34:52.130Z,4.20
2022-08-10T05:38:13.035Z,3.80
2022-08-10T05:40:47.824Z,4.20
2022-08-10T05:43:35.252Z,4.10
2022-08-10T05:46:23.448Z,5.90
2022-08-10T05:49:10.353Z,4.50
2022-08-10T05:51:57.368Z,4.50
2022-08-10T05:54:44.285Z,4.87
2022-08-10T05:57:31.077Z,4.60
2022-08-10T06:00:37.272Z,4.53
2022-08-10T06:03:30.984Z,4.27
2022-08-10T06:06:24.830Z,3.63
2022-08-10T06:09:16.552Z,3.70
2022-08-10T06:12:24.214Z,4.40
2022-08-10T06:15:21.568Z,3.90
2022-08-10T06:18:26.554Z,3.80
2022-08-10T06:21:14.599Z,3.83
2022-08-10T06:24:03.253Z,4.03
2022-08-10T06:26:49.929Z,4.10
2022-08-10T06:29:38.774Z,3.40
2022-08-10T06:32:28.682Z,3.73
2022-08-10T06:35:18.661Z,4.37
2022-08-10T06:38:07.544Z,3.50
2022-08-10T06:40:58.170Z,4.00
2022-08-10T06:43:48.991Z,3.43
2022-08-10T06:46:38.937Z,3.80
2022-08-10T06:49:25.311Z,3.07
2022-08-10T06:52:18.482Z,3.77
2022-08-10T06:55:09.341Z,3.30
2022-08-10T06:58:00.571Z,4.00
2022-08-10T07:00:49.924Z,4.07
2022-08-10T07:03:44.848Z,3.63
2022-08-10T07:06:35.879Z,3.90
2022-08-10T07:09:27.091Z,3.63
2022-08-10T07:12:18.353Z,3.67
2022-08-10T07:15:11.088Z,3.60
2022-08-10T07:18:00.243Z,3.30
2022-08-10T07:20:48.728Z,3.30
2022-08-10T07:23:57.700Z,4.13
2022-08-10T07:26:49.005Z,4.50
2022-08-10T07:29:53.486Z,3.30
2022-08-10T07:32:44.181Z,3.27
2022-08-10T07:35:42.713Z,3.53
2022-08-10T07:38:32.936Z,3.57
2022-08-10T07:41:23.460Z,3.60
2022-08-10T07:44:12.877Z,3.10
2022-08-10T07:47:04.037Z,4.10
2022-08-10T07:49:53.215Z,3.43
2022-08-10T07:52:41.112Z,3.57
2022-08-10T07:56:10.182Z,3.90
2022-08-10T07:58:39.539Z,3.10
2022-08-10T08:01:37.301Z,3.20
2022-08-10T08:04:26.556Z,3.30
2022-08-10T08:07:17.325Z,3.20
2022-08-10T08:10:09.810Z,3.27
2022-08-10T08:12:58.027Z,2.93
2022-08-10T08:16:20.239Z,2.80
2022-08-10T08:19:26.394Z,3.10
2022-08-10T08:24:07.521Z,3.53
2022-08-10T08:25:14.483Z,3.30
2022-08-10T08:28:03.034Z,3.13
2022-08-10T08:30:50.730Z,3.10
2022-08-10T08:33:42.215Z,3.50
2022-08-10T08:36:32.949Z,3.10
2022-08-10T08:39:19.646Z,3.10
2022-08-10T08:42:28.816Z,3.27
2022-08-10T08:45:25.341Z,3.03
2022-08-10T08:48:32.199Z,3.07
2022-08-10T08:52:07.272Z,2.60
2022-08-10T08:54:49.562Z,2.97
2022-08-10T08:57:49.464Z,2.50
2022-08-10T09:00:44.935Z,2.50
2022-08-10T09:03:52.815Z,2.33
2022-08-10T09:07:07.448Z,2.53
2022-08-10T09:10:25.561Z,2.67
2022-08-10T09:13:26.697Z,2.53
2022-08-10T09:16:25.481Z,2.50
2022-08-10T09:19:34.651Z,2.40
2022-08-10T09:22:32.621Z,3.10
2022-08-10T09:25:24.077Z,2.67
2022-08-10T09:28:17.936Z,2.20
2022-08-10T09:31:22.077Z,2.40
2022-08-10T09:36:23.869Z,2.37
2022-08-10T09:38:01.009Z,2.40
2022-08-10T09:40:59.627Z,2.30
2022-08-10T09:43:57.686Z,1.90
2022-08-10T09:47:13.306Z,2.27
2022-08-10T09:50:08.704Z,2.30
2022-08-10T09:53:07.984Z,2.10
2022-08-10T09:56:18.966Z,2.13
2022-08-10T09:59:27.233Z,1.83
2022-08-10T10:02:37.169Z,2.00
2022-08-10T10:05:52.215Z,2.00
2022-08-10T10:08:45.937Z,2.27
2022-08-10T10:11:54.444Z,2.37
2022-08-10T10:15:10.941Z,2.40
2022-08-10T10:18:23.379Z,2.13
2022-08-10T10:21:24.087Z,2.97
2022-08-10T10:24:31.275Z,2.20
2022-08-10T10:27:33.342Z,2.40
2022-08-10T10:30:21.273Z,2.40
2022-08-10T10:33:16.131Z,2.00
2022-08-10T10:36:05.313Z,2.07
2022-08-10T10:38:54.553Z,2.37
2022-08-10T10:42:03.637Z,2.00
2022-08-10T10:45:04.606Z,2.33
2022-08-10T10:48:00.904Z,2.00
2022-08-10T10:50:58.885Z,2.30
2022-08-10T10:53:51.223Z,2.33
2022-08-10T10:56:50.193Z,2.17
2022-08-10T10:59:56.313Z,2.10
2022-08-10T11:02:58.218Z,2.20
2022-08-10T11:05:51.201Z,2.07
2022-08-10T11:08:41.849Z,1.67
2022-08-10T11:12:01.737Z,2.10
2022-08-10T11:14:54.203Z,1.80
2022-08-10T11:17:47.297Z,1.97
2022-08-10T11:20:43.472Z,2.00
2022-08-10T11:23:36.246Z,2.27
2022-08-10T11:26:29.828Z,2.70
2022-08-10T11:29:23.895Z,2.13
2022-08-10T11:32:20.599Z,2.20
2022-08-10T11:35:19.772Z,2.40
2022-08-10T11:38:29.640Z,2.00
2022-08-10T11:42:09.452Z,2.00
2022-08-10T11:44:48.045Z,2.73
2022-08-10T11:47:40.394Z,2.20
2022-08-10T11:50:32.419Z,2.40
2022-08-10T11:53:28.028Z,2.40
2022-08-10T11:56:29.835Z,2.60
2022-08-10T11:59:36.438Z,2.17
2022-08-10T12:02:26.293Z,2.40
2022-08-10T12:05:19.004Z,2.33
2022-08-10T12:10:03.078Z,2.50
2022-08-10T12:11:24.301Z,2.57
2022-08-10T12:14:21.895Z,2.13
2022-08-10T12:17:14.755Z,2.53
2022-08-10T12:20:08.032Z,2.63
2022-08-10T12:22:58.917Z,2.57
2022-08-10T12:25:56.014Z,2.10
2022-08-10T12:28:55.227Z,2.30
2022-08-10T12:31:46.827Z,2.30
2022-08-10T12:34:44.090Z,1.97
2022-08-10T12:37:39.713Z,2.20
2022-08-10T12:40:35.754Z,2.43
2022-08-10T12:44:07.585Z,2.23
2022-08-10T12:47:14.056Z,2.27
2022-08-10T12:50:30.876Z,2.37
2022-08-10T12:53:25.020Z,2.20
2022-08-10T12:56:11.944Z,2.20
2022-08-10T12:59:01.670Z,2.13
2022-08-10T13:02:09.491Z,2.37
2022-08-10T13:05:02.183Z,2.03
2022-08-10T13:08:26.642Z,2.40
2022-08-10T13:12:36.915Z,2.10
2022-08-10T13:14:31.438Z,2.50
2022-08-10T13:17:24.263Z,5.60
2022-08-10T13:20:27.472Z,2.50
2022-08-10T13:23:17.189Z,2.17
2022-08-10T13:26:04.866Z,2.33
2022-08-10T13:28:55.328Z,2.00
2022-08-10T13:32:35.001Z,2.67
2022-08-10T13:35:24.861Z,2.70
2022-08-10T13:38:16.299Z,2.40
2022-08-10T13:41:04.230Z,2.50
2022-08-10T13:43:53.493Z,2.23
2022-08-10T13:46:42.444Z,2.33
2022-08-10T13:49:31.811Z,2.17
2022-08-10T13:52:23.949Z,2.30
2022-08-10T13:55:13.474Z,1.93
2022-08-10T13:58:03.696Z,2.20
2022-08-10T14:00:50.946Z,2.20
2022-08-10T14:03:40.226Z,2.20
2022-08-10T14:06:29.498Z,2.33
2022-08-10T14:09:19.035Z,2.03
2022-08-10T14:12:07.656Z,2.03
2022-08-10T14:14:55.929Z,2.60
2022-08-10T14:17:45.077Z,2.10
2022-08-10T14:20:35.035Z,2.10
2022-08-10T14:23:22.184Z,2.10
2022-08-10T14:26:16.072Z,1.90
2022-08-10T14:29:06.563Z,1.70
2022-08-10T14:32:00.507Z,1.90
2022-08-10T14:36:16.443Z,1.90
2022-08-10T14:38:01.309Z,2.03
2022-08-10T14:40:53.838Z,2.10
2022-08-10T14:43:43.186Z,1.80
2022-08-10T14:46:30.975Z,2.90
2022-08-10T14:49:25.451Z,2.00
2022-08-10T14:52:14.949Z,1.90
2022-08-10T14:55:05.842Z,2.07
2022-08-10T14:58:20.221Z,2.30
2022-08-10T15:01:09.634Z,1.83
2022-08-10T15:04:01.929Z,1.70
2022-08-10T15:06:54.135Z,1.73
2022-08-10T15:09:59.870Z,1.87
2022-08-10T15:12:49.441Z,1.90
2022-08-10T15:16:01.974Z,2.00
2022-08-10T15:18:58.331Z,1.80
2022-08-10T15:21:47.115Z,2.07
2022-08-10T15:25:04.073Z,1.83
2022-08-10T15:27:56.123Z,2.00
2022-08-10T15:30:44.929Z,2.00
2022-08-10T15:34:04.190Z,2.10
2022-08-10T15:37:40.133Z,2.20
2022-08-10T15:40:30.866Z,1.90
2022-08-10T15:43:25.752Z,2.00
2022-08-10T15:46:17.304Z,1.90
2022-08-10T15:49:10.957Z,1.77
2022-08-10T15:52:04.963Z,2.07
2022-08-10T15:54:57.931Z,1.90
2022-08-10T15:57:49.672Z,1.80
2022-08-10T16:00:41.342Z,1.70
2022-08-10T16:03:33.971Z,1.83
2022-08-10T16:06:29.101Z,2.10
2022-08-10T16:10:10.888Z,2.00
2022-08-10T16:12:34.059Z,1.90
2022-08-10T16:15:24.143Z,1.77
2022-08-10T16:18:14.456Z,1.77
2022-08-10T16:21:03.515Z,1.87
2022-08-10T16:24:15.418Z,1.67
2022-08-10T16:27:11.260Z,1.70
2022-08-10T16:30:06.823Z,1.50
2022-08-10T16:32:54.145Z,1.70
2022-08-10T16:35:48.169Z,1.87
2022-08-10T16:38:42.813Z,2.13
2022-08-10T16:42:03.124Z,1.90
2022-08-10T16:44:51.489Z,1.70
2022-08-10T16:47:48.012Z,1.93
2022-08-10T16:50:43.185Z,1.97
2022-08-10T16:53:32.115Z,1.97
2022-08-10T16:56:25.248Z,1.90
2022-08-10T16:59:29.516Z,1.90
2022-08-10T17:02:24.195Z,2.80
2022-08-10T17:05:14.452Z,1.70
2022-08-10T17:08:23.046Z,1.80
2022-08-10T17:11:11.481Z,1.73
2022-08-10T17:14:03.002Z,1.83
2022-08-10T17:16:56.533Z,1.60
2022-08-10T17:19:46.167Z,2.50
2022-08-10T17:22:38.084Z,1.90
2022-08-10T17:25:48.574Z,1.70
2022-08-10T17:28:39.988Z,1.90
2022-08-10T17:31:54.008Z,2.20
2022-08-10T17:34:45.616Z,2.23
2022-08-10T17:37:37.604Z,1.63
2022-08-10T17:40:25.588Z,1.60
2022-08-10T17:43:13.393Z,2.00
2022-08-10T17:46:25.064Z,2.20
2022-08-10T17:49:13.566Z,1.80
2022-08-10T17:52:02.769Z,2.13
2022-08-10T17:54:58.517Z,2.20
2022-08-10T17:57:47.165Z,2.30
2022-08-10T18:00:51.581Z,2.00
2022-08-10T18:03:44.358Z,2.10
2022-08-10T18:06:32.284Z,1.70
2022-08-10T18:09:26.049Z,2.20
2022-08-10T18:12:18.386Z,2.23
2022-08-10T18:15:13.724Z,2.13
2022-08-10T18:18:03.604Z,2.20
2022-08-10T18:20:53.195Z,2.33
2022-08-10T18:23:42.913Z,2.40
2022-08-10T18:26:42.959Z,2.30
2022-08-10T18:29:32.426Z,2.37
2022-08-10T18:32:21.754Z,2.13
2022-08-10T18:35:10.324Z,2.40
2022-08-10T18:38:02.479Z,2.50
2022-08-10T18:40:54.366Z,2.63
2022-08-10T18:44:05.924Z,2.43
2022-08-10T18:46:57.209Z,2.43
2022-08-10T18:50:02.300Z,2.67
2022-08-10T18:52:53.954Z,2.90
2022-08-10T18:56:09.643Z,2.80
2022-08-10T18:59:02.734Z,2.53
2022-08-10T19:02:08.479Z,3.23
2022-08-10T19:05:31.156Z,3.20
2022-08-10T19:08:49.145Z,2.87
2022-08-10T19:12:02.252Z,2.73
2022-08-10T19:14:58.321Z,3.00
2022-08-10T19:18:01.248Z,3.27
2022-08-10T19:20:58.883Z,3.07
2022-08-10T19:23:58.928Z,3.30
2022-08-10T19:27:03.038Z,2.90
2022-08-10T19:30:11.208Z,2.50
2022-08-10T19:33:21.898Z,2.30
2022-08-10T19:36:18.520Z,2.30
2022-08-10T19:39:26.647Z,2.63
2022-08-10T19:42:20.947Z,2.40
2022-08-10T19:45:56.243Z,2.40
2022-08-10T19:48:42.364Z,2.10
2022-08-10T19:51:44.345Z,2.37
2022-08-10T19:54:45.436Z,2.10
2022-08-10T19:57:45.614Z,2.30
2022-08-10T20:00:43.030Z,2.53
2022-08-10T20:03:41.656Z,2.10
2022-08-10T20:06:33.301Z,2.60
2022-08-10T20:09:29.783Z,1.87
2022-08-10T20:12:24.363Z,2.10
2022-08-10T20:15:20.111Z,1.60
2022-08-10T20:18:13.033Z,1.93
2022-08-10T20:21:07.167Z,1.90
2022-08-10T20:23:57.510Z,2.00
2022-08-10T20:26:47.901Z,2.00
2022-08-10T20:29:58.739Z,1.90
2022-08-10T20:32:50.654Z,1.90
2022-08-10T20:35:48.781Z,2.00
2022-08-10T20:38:43.094Z,1.80
2022-08-10T20:41:46.055Z,3.80
2022-08-10T20:44:50.767Z,2.20
2022-08-10T20:47:54.199Z,2.00
2022-08-10T20:50:46.533Z,2.00
2022-08-10T20:53:43.667Z,1.80
2022-08-10T20:56:43.336Z,2.00
2022-08-10T21:00:02.511Z,1.60
2022-08-10T21:03:06.854Z,1.70
2022-08-10T21:06:04.995Z,2.30
2022-08-10T21:09:00.901Z,2.00
2022-08-10T21:12:05.825Z,1.87
2022-08-10T21:15:09.123Z,2.10
2022-08-10T21:18:27.143Z,1.53
2022-08-10T21:21:41.818Z,1.90
2022-08-10T21:24:44.092Z,1.40
2022-08-10T21:28:04.668Z,1.47
2022-08-10T21:31:14.195Z,1.70
2022-08-10T21:34:19.341Z,1.77
2022-08-10T21:37:23.164Z,1.80
2022-08-10T21:41:17.140Z,1.83
2022-08-10T21:44:25.455Z,1.60
2022-08-10T21:48:06.630Z,1.90
2022-08-10T21:51:24.023Z,1.80
2022-08-10T21:54:37.575Z,1.50
2022-08-10T21:57:49.372Z,1.57
2022-08-10T22:00:59.283Z,1.70
2022-08-10T22:04:07.202Z,1.93
2022-08-10T22:07:17.147Z,1.70
2022-08-10T22:10:25.621Z,1.60
2022-08-10T22:13:36.501Z,1.73
2022-08-10T22:16:49.660Z,2.10
2022-08-10T22:20:00.144Z,1.80
2022-08-10T22:23:19.152Z,1.77
2022-08-10T22:26:37.754Z,2.00
2022-08-10T22:29:56.687Z,1.93
2022-08-10T22:33:16.989Z,1.90
2022-08-10T22:36:46.345Z,1.80
2022-08-10T22:40:14.338Z,1.90
2022-08-10T22:43:35.891Z,1.90
2022-08-10T22:46:46.117Z,2.10
2022-08-10T22:49:31.916Z,2.00
2022-08-10T22:52:22.546Z,2.00
2022-08-10T22:55:33.537Z,1.90
2022-08-10T22:58:38.229Z,2.07
2022-08-10T23:02:07.065Z,1.80
2022-08-10T23:04:53.808Z,2.30
2022-08-10T23:07:48.242Z,1.70
2022-08-10T23:10:40.551Z,2.07
2022-08-10T23:13:36.235Z,3.23
2022-08-10T23:16:46.436Z,2.00
2022-08-10T23:19:36.123Z,1.80
2022-08-10T23:22:35.156Z,1.97
2022-08-10T23:25:29.996Z,2.13
2022-08-10T23:28:19.936Z,2.17
2022-08-10T23:31:59.210Z,2.10
2022-08-10T23:34:37.233Z,1.70
2022-08-10T23:37:29.537Z,2.10
2022-08-10T23:40:18.992Z,1.90
2022-08-10T23:43:07.243Z,1.93
2022-08-10T23:45:56.472Z,2.13
2022-08-10T23:48:46.764Z,2.30
2022-08-10T23:51:54.736Z,2.03
2022-08-10T23:54:49.848Z,2.03
2022-08-10T23:57:42.573Z,2.20
